Time;durP1;ratioP1;P1;durP2;ratioP2;P2;SDS_P1;SDS_P2;PMS_P1;PMS_P2;Temp;Humidity;BMP_temperature;BMP_pressure;BME280_temperature;BME280_humidity;BME280_pressure;Samples;Min_cycle;Max_cycle;Signal;HPM_P1;HPM_P2
2021/08/30 00:00:49;;;;;;;;;;;14.00;99.90;;;;;;5032606;28;19915;-69
2021/08/30 00:03:15;;;;;;;;;;;14.10;99.90;;;;;;5032518;28;19944;-70
2021/08/30 00:05:42;;;;;;;;;;;14.20;99.90;;;;;;5032529;28;19915;-68
2021/08/30 00:08:09;;;;;;;;;;;14.20;99.90;;;;;;5032476;28;20275;-68
2021/08/30 00:10:35;;;;;;;;;;;14.40;99.90;;;;;;5032628;28;19917;-68
2021/08/30 00:13:02;;;;;;;;;;;14.40;99.20;;;;;;5032622;28;20236;-69
2021/08/30 00:15:30;;;;;;;;;;;14.50;99.20;;;;;;5032529;28;19910;-68
2021/08/30 00:17:57;;;;;;;;;;;14.50;99.40;;;;;;5032292;28;20395;-68
2021/08/30 00:20:24;;;;;;;;;;;14.60;99.30;;;;;;5032363;28;19913;-69
2021/08/30 00:22:51;;;;;;;;;;;14.60;98.60;;;;;;5032387;28;19909;-68
2021/08/30 00:25:17;;;;;;;;;;;14.70;98.40;;;;;;5032219;28;20031;-69
2021/08/30 00:27:44;;;;;;;;;;;14.70;97.60;;;;;;5032120;28;19913;-68
2021/08/30 00:30:11;;;;;;;;;;;14.70;98.00;;;;;;5031947;28;19928;-69
2021/08/30 00:32:38;;;;;;;;;;;14.80;97.80;;;;;;5032386;28;20418;-68
2021/08/30 00:35:05;;;;;;;;;;;14.90;97.00;;;;;;5032446;28;19909;-69
2021/08/30 00:37:32;;;;;;;;;;;15.00;97.20;;;;;;5031738;28;19979;-69
2021/08/30 00:39:59;;;;;;;;;;;15.00;96.60;;;;;;5032109;28;19955;-69
2021/08/30 00:42:27;;;;;;;;;;;15.10;97.20;;;;;;5032266;28;20368;-68
2021/08/30 00:44:53;;;;;;;;;;;15.10;96.80;;;;;;5032161;28;20333;-68
2021/08/30 00:47:21;;;;;;;;;;;15.20;97.00;;;;;;5032006;28;19909;-69
2021/08/30 00:49:47;;;;;;;;;;;15.20;96.20;;;;;;5031858;28;19976;-67
2021/08/30 00:52:14;;;;;;;;;;;15.30;96.00;;;;;;5031785;28;19956;-68
2021/08/30 00:54:40;;;;;;;;;;;15.40;95.40;;;;;;5033420;28;19909;-68
2021/08/30 00:57:07;;;;;;;;;;;15.40;94.60;;;;;;5036105;28;19909;-66
2021/08/30 00:59:38;;;;;;;;;;;15.40;94.90;;;;;;5036156;28;19920;-68
2021/08/30 01:02:05;;;;;;;;;;;15.50;94.60;;;;;;5036473;28;19999;-68
2021/08/30 01:04:31;;;;;;;;;;;15.60;94.80;;;;;;5036277;28;19952;-68
2021/08/30 01:07:08;;;;;;;;;;;15.60;94.80;;;;;;5036229;28;19914;-69
2021/08/30 01:09:35;;;;;;;;;;;15.80;93.80;;;;;;5035625;28;19956;-69
2021/08/30 01:12:08;;;;;;;;;;;15.80;93.70;;;;;;5036125;28;20347;-69
2021/08/30 01:14:38;;;;;;;;;;;15.90;94.00;;;;;;5035911;28;20372;-68
2021/08/30 01:17:05;;;;;;;;;;;16.40;92.80;;;;;;5035716;28;19910;-69
2021/08/30 01:19:35;;;;;;;;;;;16.80;92.20;;;;;;5035682;28;19909;-67
2021/08/30 01:22:04;;;;;;;;;;;16.90;91.80;;;;;;5035811;28;19909;-69
2021/08/30 01:24:32;;;;;;;;;;;16.90;91.10;;;;;;5035906;28;19909;-68
2021/08/30 01:27:00;;;;;;;;;;;17.00;91.10;;;;;;5034565;28;19959;-68
2021/08/30 01:29:28;;;;;;;;;;;17.00;90.90;;;;;;5035366;28;19968;-68
2021/08/30 01:32:02;;;;;;;;;;;16.90;91.20;;;;;;5034959;28;19917;-68
2021/08/30 01:34:30;;;;;;;;;;;16.90;90.90;;;;;;5035484;28;20279;-68
2021/08/30 01:36:57;;;;;;;;;;;16.80;91.20;;;;;;5035394;28;19920;-69
2021/08/30 01:39:29;;;;;;;;;;;16.60;91.80;;;;;;5032935;28;19909;-68
2021/08/30 01:42:00;;;;;;;;;;;16.60;91.40;;;;;;5015415;28;19920;-69
2021/08/30 01:44:27;;;;;;;;;;;16.60;91.50;;;;;;5015305;28;19917;-69
2021/08/30 01:46:55;;;;;;;;;;;16.60;91.80;;;;;;5015242;28;19917;-69
2021/08/30 01:49:24;;;;;;;;;;;16.60;92.20;;;;;;5014982;28;19928;-69
2021/08/30 01:51:51;;;;;;;;;;;16.60;92.10;;;;;;5015330;28;20261;-69
2021/08/30 01:54:18;;;;;;;;;;;16.60;91.90;;;;;;5015304;28;20383;-69
2021/08/30 01:56:50;;;;;;;;;;;16.50;91.00;;;;;;5015182;28;20055;-68
2021/08/30 02:02:05;;;;;;;;;;;16.60;91.50;;;;;;5015344;28;19916;-69
2021/08/30 02:04:31;;;;;;;;;;;16.50;91.70;;;;;;5015047;28;19913;-69
2021/08/30 02:06:58;;;;;;;;;;;16.40;91.80;;;;;;5015049;28;19916;-69
2021/08/30 02:09:25;;;;;;;;;;;16.30;91.80;;;;;;5015181;28;20014;-69
2021/08/30 02:11:51;;;;;;;;;;;16.20;91.80;;;;;;5014695;28;19919;-68
2021/08/30 02:14:19;;;;;;;;;;;16.20;92.30;;;;;;5014846;28;20380;-69
2021/08/30 02:16:50;;;;;;;;;;;16.20;92.30;;;;;;5014632;28;19918;-68
2021/08/30 02:19:34;;;;;;;;;;;16.20;91.80;;;;;;5014882;28;20364;-68
2021/08/30 02:22:04;;;;;;;;;;;16.30;91.70;;;;;;5014789;28;19916;-69
2021/08/30 02:24:44;;;;;;;;;;;16.30;93.10;;;;;;5014691;28;20005;-68
2021/08/30 02:27:15;;;;;;;;;;;16.30;91.70;;;;;;5014544;28;19914;-67
2021/08/30 02:29:42;;;;;;;;;;;16.30;91.90;;;;;;5014370;28;19924;-68
2021/08/30 02:32:09;;;;;;;;;;;16.30;91.70;;;;;;5014402;28;20369;-68
2021/08/30 02:34:37;;;;;;;;;;;16.30;91.10;;;;;;5014561;28;19933;-68
2021/08/30 02:37:05;;;;;;;;;;;16.40;90.60;;;;;;5014469;28;19909;-67
2021/08/30 02:39:32;;;;;;;;;;;16.40;90.70;;;;;;5014206;28;19910;-68
2021/08/30 02:42:00;;;;;;;;;;;16.50;91.10;;;;;;5014397;28;19916;-68
2021/08/30 02:44:27;;;;;;;;;;;16.40;90.70;;;;;;5014235;28;19913;-68
2021/08/30 02:46:53;;;;;;;;;;;16.40;89.70;;;;;;5014089;28;20000;-68
2021/08/30 02:49:20;;;;;;;;;;;16.50;90.30;;;;;;5014011;28;19921;-67
2021/08/30 02:51:48;;;;;;;;;;;16.40;89.50;;;;;;5013906;28;19914;-67
2021/08/30 02:54:14;;;;;;;;;;;16.40;90.50;;;;;;5014170;28;19909;-67
2021/08/30 02:56:42;;;;;;;;;;;16.50;90.40;;;;;;5014126;28;19917;-66
2021/08/30 02:59:09;;;;;;;;;;;16.60;90.20;;;;;;5014015;28;19910;-67
2021/08/30 03:01:36;;;;;;;;;;;16.80;90.20;;;;;;5013694;28;19916;-67
2021/08/30 03:04:03;;;;;;;;;;;16.90;90.20;;;;;;5014072;28;19909;-67
2021/08/30 03:06:30;;;;;;;;;;;17.00;89.70;;;;;;5013987;28;19910;-67
2021/08/30 03:08:57;;;;;;;;;;;16.90;88.60;;;;;;5013760;28;19925;-67
2021/08/30 03:11:24;;;;;;;;;;;16.70;89.20;;;;;;5013876;28;20258;-67
2021/08/30 03:13:51;;;;;;;;;;;16.70;90.10;;;;;;5013563;28;19909;-67
2021/08/30 03:16:19;;;;;;;;;;;16.70;90.50;;;;;;5013832;28;19994;-68
2021/08/30 03:18:46;;;;;;;;;;;16.60;90.40;;;;;;5013160;28;19914;-68
2021/08/30 03:21:13;;;;;;;;;;;16.60;90.20;;;;;;5013619;28;19909;-67
2021/08/30 03:23:40;;;;;;;;;;;16.70;90.30;;;;;;5013431;28;19910;-67
2021/08/30 03:26:07;;;;;;;;;;;16.80;89.50;;;;;;5013643;28;20361;-68
2021/08/30 03:28:34;;;;;;;;;;;16.90;89.50;;;;;;5013830;28;19915;-68
2021/08/30 03:31:01;;;;;;;;;;;16.90;89.20;;;;;;5013572;28;19921;-68
2021/08/30 03:33:29;;;;;;;;;;;17.00;89.90;;;;;;5013329;28;20360;-68
2021/08/30 03:35:57;;;;;;;;;;;17.00;88.70;;;;;;5013414;28;20368;-68
2021/08/30 03:38:24;;;;;;;;;;;17.10;87.70;;;;;;5013498;28;20381;-68
2021/08/30 03:40:51;;;;;;;;;;;17.20;89.80;;;;;;5013356;28;19932;-68
2021/08/30 03:43:18;;;;;;;;;;;17.20;91.90;;;;;;5013358;28;19917;-68
2021/08/30 03:45:48;;;;;;;;;;;17.20;92.80;;;;;;5012968;28;19963;-68
2021/08/30 03:48:15;;;;;;;;;;;17.10;91.80;;;;;;5013153;28;19910;-68
2021/08/30 03:50:42;;;;;;;;;;;16.90;92.80;;;;;;5013236;28;19922;-68
2021/08/30 03:53:09;;;;;;;;;;;16.80;92.50;;;;;;5013231;28;19909;-68
2021/08/30 03:55:36;;;;;;;;;;;16.90;92.70;;;;;;5012886;28;19916;-68
2021/08/30 03:58:03;;;;;;;;;;;16.80;92.90;;;;;;5012981;28;19909;-68
2021/08/30 04:00:30;;;;;;;;;;;16.80;93.70;;;;;;5013292;28;20261;-68
2021/08/30 04:02:58;;;;;;;;;;;16.90;93.20;;;;;;5044532;28;19975;-68
2021/08/30 04:05:28;;;;;;;;;;;16.90;92.30;;;;;;5012977;28;20360;-68
2021/08/30 04:07:58;;;;;;;;;;;16.90;92.80;;;;;;5012944;28;19956;-68
2021/08/30 04:10:25;;;;;;;;;;;16.90;92.60;;;;;;5012773;28;19917;-68
2021/08/30 04:12:53;;;;;;;;;;;16.90;91.90;;;;;;5012952;28;19909;-68
2021/08/30 04:15:19;;;;;;;;;;;16.90;92.60;;;;;;5012686;28;19960;-68
2021/08/30 04:17:46;;;;;;;;;;;17.10;92.40;;;;;;5012646;28;19918;-67
2021/08/30 04:20:13;;;;;;;;;;;17.10;92.90;;;;;;5012925;28;19917;-68
2021/08/30 04:22:39;;;;;;;;;;;17.20;92.40;;;;;;5012685;28;19914;-69
2021/08/30 04:25:06;;;;;;;;;;;17.20;92.60;;;;;;5012738;28;19967;-68
2021/08/30 04:27:33;;;;;;;;;;;17.10;92.50;;;;;;5012585;28;19993;-68
2021/08/30 04:30:00;;;;;;;;;;;17.10;93.00;;;;;;5011743;28;20391;-68
2021/08/30 04:32:32;;;;;;;;;;;17.10;93.30;;;;;;5012622;28;20379;-68
2021/08/30 04:34:59;;;;;;;;;;;17.00;92.60;;;;;;5012564;28;19979;-68
2021/08/30 04:37:25;;;;;;;;;;;16.90;93.00;;;;;;5012628;28;19909;-68
2021/08/30 04:39:52;;;;;;;;;;;16.80;93.20;;;;;;5012533;28;19943;-68
2021/08/30 04:42:19;;;;;;;;;;;16.70;93.40;;;;;;5012832;28;20496;-68
2021/08/30 04:44:45;;;;;;;;;;;16.70;93.70;;;;;;5012551;28;20368;-68
2021/08/30 04:47:13;;;;;;;;;;;16.90;93.60;;;;;;5012455;28;19910;-68
2021/08/30 04:49:39;;;;;;;;;;;17.00;93.60;;;;;;5012103;28;20372;-68
2021/08/30 04:52:06;;;;;;;;;;;17.00;93.50;;;;;;5012423;28;19910;-68
2021/08/30 04:54:33;;;;;;;;;;;16.90;92.30;;;;;;5012629;28;19916;-68
2021/08/30 04:56:59;;;;;;;;;;;16.90;93.10;;;;;;5012487;28;19917;-68
2021/08/30 04:59:26;;;;;;;;;;;16.90;92.80;;;;;;5012535;28;19921;-68
2021/08/30 05:01:53;;;;;;;;;;;16.70;92.50;;;;;;5012184;28;20000;-68
2021/08/30 05:04:19;;;;;;;;;;;16.70;92.80;;;;;;5012387;28;19917;-68
2021/08/30 05:06:46;;;;;;;;;;;16.70;92.70;;;;;;5012580;28;19936;-68
2021/08/30 05:09:13;;;;;;;;;;;16.60;93.10;;;;;;5012435;28;19979;-68
2021/08/30 05:11:39;;;;;;;;;;;16.60;93.00;;;;;;5012078;28;19914;-68
2021/08/30 05:14:06;;;;;;;;;;;16.60;92.60;;;;;;5012212;28;19913;-68
2021/08/30 05:16:33;;;;;;;;;;;16.50;92.90;;;;;;5011949;28;19996;-68
2021/08/30 05:18:59;;;;;;;;;;;16.50;92.90;;;;;;5012444;28;20028;-67
2021/08/30 05:21:26;;;;;;;;;;;16.50;93.40;;;;;;5012436;28;20403;-67
2021/08/30 05:23:53;;;;;;;;;;;16.60;93.30;;;;;;5011959;28;19909;-67
2021/08/30 05:26:19;;;;;;;;;;;16.50;92.70;;;;;;5012188;28;20415;-67
2021/08/30 05:28:46;;;;;;;;;;;16.40;93.30;;;;;;5012036;28;19913;-67
2021/08/30 05:31:14;;;;;;;;;;;16.40;93.20;;;;;;5012398;28;20009;-68
2021/08/30 05:33:41;;;;;;;;;;;16.40;93.20;;;;;;5012413;28;19910;-68
2021/08/30 05:36:07;;;;;;;;;;;16.40;93.40;;;;;;5012528;28;20004;-68
2021/08/30 05:38:34;;;;;;;;;;;16.50;92.60;;;;;;5012295;28;19972;-69
2021/08/30 05:41:01;;;;;;;;;;;16.40;92.90;;;;;;5014085;28;20272;-68
2021/08/30 05:43:27;;;;;;;;;;;16.40;92.90;;;;;;5016134;28;20368;-69
2021/08/30 05:45:54;;;;;;;;;;;16.40;93.10;;;;;;5015465;28;19945;-69
2021/08/30 05:48:21;;;;;;;;;;;16.40;93.10;;;;;;5015362;28;20257;-69
2021/08/30 05:50:48;;;;;;;;;;;16.40;93.20;;;;;;5015277;28;19925;-68
2021/08/30 05:53:14;;;;;;;;;;;16.40;93.20;;;;;;5030938;28;19996;-68
2021/08/30 05:55:41;;;;;;;;;;;16.30;93.70;;;;;;5015577;28;19952;-68
2021/08/30 05:58:08;;;;;;;;;;;16.30;93.30;;;;;;5015492;28;19981;-68
2021/08/30 06:00:34;;;;;;;;;;;16.30;93.30;;;;;;5015334;28;19956;-67
2021/08/30 06:03:01;;;;;;;;;;;16.30;93.50;;;;;;5015038;28;19910;-68
2021/08/30 06:05:27;;;;;;;;;;;16.20;93.90;;;;;;5015101;28;19910;-68
2021/08/30 06:07:54;;;;;;;;;;;16.20;93.40;;;;;;5015858;28;19932;-68
2021/08/30 06:10:21;;;;;;;;;;;16.10;93.80;;;;;;5014941;28;19917;-68
2021/08/30 06:12:48;;;;;;;;;;;16.00;93.90;;;;;;5014921;28;20022;-68
2021/08/30 06:15:15;;;;;;;;;;;16.00;94.00;;;;;;5014757;28;19910;-68
2021/08/30 06:17:42;;;;;;;;;;;16.00;94.20;;;;;;5014718;28;19973;-69
2021/08/30 06:20:09;;;;;;;;;;;16.00;94.40;;;;;;5015063;28;20276;-69
2021/08/30 06:22:35;;;;;;;;;;;16.00;94.50;;;;;;5014925;28;19920;-69
2021/08/30 06:25:02;;;;;;;;;;;15.90;94.50;;;;;;5014900;28;19956;-68
2021/08/30 06:27:29;;;;;;;;;;;16.00;94.90;;;;;;5014706;28;19916;-67
2021/08/30 06:29:56;;;;;;;;;;;15.90;94.50;;;;;;5014466;28;19923;-67
2021/08/30 06:32:22;;;;;;;;;;;15.90;94.30;;;;;;5014487;28;20005;-67
2021/08/30 06:34:49;;;;;;;;;;;15.90;95.10;;;;;;5014519;28;19909;-68
2021/08/30 06:37:16;;;;;;;;;;;15.90;94.80;;;;;;5014515;28;19909;-67
2021/08/30 06:39:43;;;;;;;;;;;15.80;95.00;;;;;;5014403;28;20325;-67
2021/08/30 06:42:09;;;;;;;;;;;15.80;95.00;;;;;;5014552;28;19910;-67
2021/08/30 06:44:36;;;;;;;;;;;15.70;95.60;;;;;;5014247;28;19914;-67
2021/08/30 06:47:03;;;;;;;;;;;15.70;95.10;;;;;;5014159;28;20276;-67
2021/08/30 06:49:29;;;;;;;;;;;15.70;94.90;;;;;;5013893;28;19922;-67
2021/08/30 06:51:56;;;;;;;;;;;15.70;95.40;;;;;;5011261;28;19914;-67
2021/08/30 06:54:24;;;;;;;;;;;15.70;95.30;;;;;;5012153;28;19910;-67
2021/08/30 06:56:50;;;;;;;;;;;15.70;95.80;;;;;;5011920;28;19916;-67
2021/08/30 06:59:17;;;;;;;;;;;15.60;95.10;;;;;;5012084;28;20009;-68
2021/08/30 07:01:44;;;;;;;;;;;15.60;95.40;;;;;;5011786;28;19913;-67
2021/08/30 07:04:11;;;;;;;;;;;15.50;96.00;;;;;;5011631;28;19913;-69
2021/08/30 07:06:38;;;;;;;;;;;15.50;95.60;;;;;;5011897;28;19938;-69
2021/08/30 07:09:04;;;;;;;;;;;15.50;95.60;;;;;;5011762;28;19921;-68
2021/08/30 07:11:31;;;;;;;;;;;15.60;95.90;;;;;;5011649;28;19921;-69
2021/08/30 07:13:58;;;;;;;;;;;15.50;95.70;;;;;;5011687;28;20585;-69
2021/08/30 07:16:25;;;;;;;;;;;15.50;96.30;;;;;;5011565;28;19917;-67
2021/08/30 07:18:52;;;;;;;;;;;15.50;96.50;;;;;;5011424;28;20016;-67
2021/08/30 07:21:19;;;;;;;;;;;15.40;96.30;;;;;;5011886;28;19913;-68
2021/08/30 07:23:46;;;;;;;;;;;15.40;96.60;;;;;;5011615;28;19910;-67
2021/08/30 07:26:12;;;;;;;;;;;15.40;96.50;;;;;;5011846;28;19964;-67
2021/08/30 07:28:39;;;;;;;;;;;15.30;96.80;;;;;;5011813;28;19909;-68
2021/08/30 07:31:06;;;;;;;;;;;15.30;96.90;;;;;;5011320;28;19972;-68
2021/08/30 07:33:32;;;;;;;;;;;15.30;97.20;;;;;;5011263;28;19910;-68
2021/08/30 07:35:59;;;;;;;;;;;15.20;97.50;;;;;;5011858;28;19914;-68
2021/08/30 07:38:26;;;;;;;;;;;15.20;97.40;;;;;;5011293;28;19914;-69
2021/08/30 07:40:52;;;;;;;;;;;15.20;97.60;;;;;;5011578;28;19918;-68
2021/08/30 07:43:19;;;;;;;;;;;15.20;97.90;;;;;;5010960;28;19910;-69
2021/08/30 07:45:46;;;;;;;;;;;15.20;98.10;;;;;;5011228;28;20229;-69
2021/08/30 07:48:13;;;;;;;;;;;15.10;98.30;;;;;;5031047;28;19948;-69
2021/08/30 07:50:39;;;;;;;;;;;15.10;98.20;;;;;;5030564;28;19921;-69
2021/08/30 07:53:06;;;;;;;;;;;15.10;98.40;;;;;;5030395;28;20004;-69
2021/08/30 07:55:36;;;;;;;;;;;15.00;99.10;;;;;;5030718;28;19920;-67
2021/08/30 07:58:06;;;;;;;;;;;15.00;99.00;;;;;;5030362;28;20119;-68
2021/08/30 08:00:33;;;;;;;;;;;15.00;99.10;;;;;;5029213;28;19963;-69
2021/08/30 08:02:59;;;;;;;;;;;15.00;99.20;;;;;;5030783;28;20368;-67
2021/08/30 08:05:26;;;;;;;;;;;15.00;99.30;;;;;;5030719;28;19913;-67
2021/08/30 08:07:53;;;;;;;;;;;15.00;99.40;;;;;;5029959;28;19919;-70
2021/08/30 08:10:19;;;;;;;;;;;15.00;99.40;;;;;;5030707;28;19960;-67
2021/08/30 08:12:46;;;;;;;;;;;15.00;99.70;;;;;;5030241;28;19913;-69
2021/08/30 08:15:13;;;;;;;;;;;15.00;99.90;;;;;;5030406;28;19913;-69
2021/08/30 08:17:39;;;;;;;;;;;15.00;99.90;;;;;;5062054;28;19919;-69
2021/08/30 08:20:06;;;;;;;;;;;14.90;99.70;;;;;;5030037;28;19913;-69
2021/08/30 08:22:34;;;;;;;;;;;14.90;99.90;;;;;;5030476;28;20307;-69
2021/08/30 08:25:03;;;;;;;;;;;14.90;99.90;;;;;;5030343;28;19910;-69
2021/08/30 08:27:31;;;;;;;;;;;14.90;99.90;;;;;;5030582;28;19936;-69
2021/08/30 08:29:58;;;;;;;;;;;14.80;99.90;;;;;;5030005;28;19935;-69
2021/08/30 08:32:25;;;;;;;;;;;14.90;99.90;;;;;;5030167;28;19913;-69
2021/08/30 08:34:52;;;;;;;;;;;14.90;99.90;;;;;;5030265;28;19913;-69
2021/08/30 08:37:18;;;;;;;;;;;14.80;99.90;;;;;;5028966;28;19916;-69
2021/08/30 08:39:45;;;;;;;;;;;14.80;99.90;;;;;;5029588;28;19920;-69
2021/08/30 08:42:12;;;;;;;;;;;14.70;99.90;;;;;;5030066;28;19932;-69
2021/08/30 08:44:38;;;;;;;;;;;14.70;99.90;;;;;;5029979;28;19919;-69
2021/08/30 08:47:05;;;;;;;;;;;14.70;99.90;;;;;;5030292;28;20260;-68
2021/08/30 08:49:32;;;;;;;;;;;14.70;99.90;;;;;;5029748;28;20074;-69
2021/08/30 08:52:01;;;;;;;;;;;14.70;99.90;;;;;;5029785;28;20434;-70
2021/08/30 08:54:30;;;;;;;;;;;14.70;99.90;;;;;;5030095;28;19913;-69
2021/08/30 08:56:57;;;;;;;;;;;14.70;99.90;;;;;;5030125;28;19917;-69
2021/08/30 08:59:24;;;;;;;;;;;14.70;99.90;;;;;;5029932;28;20300;-69
2021/08/30 09:02:00;;;;;;;;;;;14.70;99.90;;;;;;5029855;28;19976;-69
2021/08/30 09:04:36;;;;;;;;;;;14.70;99.90;;;;;;5029880;28;19914;-69
2021/08/30 09:07:09;;;;;;;;;;;14.70;99.90;;;;;;5032525;28;20431;-69
2021/08/30 09:09:38;;;;;;;;;;;14.70;99.90;;;;;;5032036;28;20376;-69
2021/08/30 09:12:05;;;;;;;;;;;14.60;99.90;;;;;;5030792;28;19916;-69
2021/08/30 09:14:32;;;;;;;;;;;14.60;99.90;;;;;;5031843;28;19909;-69
2021/08/30 09:17:06;;;;;;;;;;;14.60;99.90;;;;;;5035430;28;19909;-69
2021/08/30 09:19:33;;;;;;;;;;;14.60;99.90;;;;;;5035635;28;19916;-69
2021/08/30 09:22:02;;;;;;;;;;;14.60;99.90;;;;;;5035838;28;20003;-69
2021/08/30 09:24:29;;;;;;;;;;;14.70;99.90;;;;;;5034371;28;19909;-69
2021/08/30 09:27:05;;;;;;;;;;;14.60;99.90;;;;;;5035471;28;19916;-70
2021/08/30 09:29:33;;;;;;;;;;;14.70;99.90;;;;;;5035045;28;20106;-69
2021/08/30 09:32:19;;;;;;;;;;;14.60;99.90;;;;;;5035450;28;19909;-69
2021/08/30 09:34:47;;;;;;;;;;;14.60;99.90;;;;;;5035249;28;19916;-69
2021/08/30 09:37:19;;;;;;;;;;;14.50;99.90;;;;;;5035484;28;19913;-69
2021/08/30 09:39:47;;;;;;;;;;;14.50;99.90;;;;;;5035016;28;19909;-69
2021/08/30 09:42:14;;;;;;;;;;;14.50;99.90;;;;;;5035363;28;19916;-69
2021/08/30 09:44:41;;;;;;;;;;;14.50;99.90;;;;;;5035157;28;19910;-69
2021/08/30 09:47:11;;;;;;;;;;;14.50;99.90;;;;;;5035118;28;19913;-69
2021/08/30 09:49:38;;;;;;;;;;;14.50;99.90;;;;;;5034768;28;19925;-69
2021/08/30 09:52:05;;;;;;;;;;;14.50;99.90;;;;;;5035046;28;20279;-69
2021/08/30 09:54:32;;;;;;;;;;;14.50;99.90;;;;;;5035111;28;19909;-69
2021/08/30 09:56:59;;;;;;;;;;;14.40;99.90;;;;;;5035021;28;19936;-69
2021/08/30 09:59:26;;;;;;;;;;;14.40;99.90;;;;;;5034773;28;19909;-69
2021/08/30 10:01:53;;;;;;;;;;;14.40;99.90;;;;;;5034708;28;19909;-69
2021/08/30 10:04:20;;;;;;;;;;;14.40;99.90;;;;;;5034938;28;19917;-69
2021/08/30 10:06:50;;;;;;;;;;;14.40;99.90;;;;;;5035121;28;19921;-68
2021/08/30 10:09:18;;;;;;;;;;;14.30;99.90;;;;;;5033608;28;19917;-70
2021/08/30 10:11:46;;;;;;;;;;;14.30;99.90;;;;;;5034534;28;19979;-69
2021/08/30 10:14:18;;;;;;;;;;;14.30;99.90;;;;;;5034785;28;19917;-69
2021/08/30 10:16:45;;;;;;;;;;;14.30;99.90;;;;;;5034715;28;19913;-69
2021/08/30 10:19:12;;;;;;;;;;;14.30;99.90;;;;;;5034771;28;19944;-69
2021/08/30 10:21:44;;;;;;;;;;;14.20;99.90;;;;;;5034439;28;20383;-69
2021/08/30 10:24:12;;;;;;;;;;;14.20;99.90;;;;;;5034587;28;19945;-69
2021/08/30 10:26:40;;;;;;;;;;;14.20;99.90;;;;;;5033710;28;19916;-69
2021/08/30 10:29:08;;;;;;;;;;;14.20;99.90;;;;;;5033882;28;20378;-69
2021/08/30 10:31:34;;;;;;;;;;;14.20;99.90;;;;;;5034270;28;19914;-69
2021/08/30 10:34:01;;;;;;;;;;;14.20;99.90;;;;;;5034367;28;20007;-69
2021/08/30 10:36:28;;;;;;;;;;;14.20;99.90;;;;;;5034663;28;19909;-69
2021/08/30 10:38:59;;;;;;;;;;;14.10;99.90;;;;;;5034697;28;20307;-69
2021/08/30 10:41:31;;;;;;;;;;;14.10;99.90;;;;;;5034387;28;20339;-69
2021/08/30 10:44:11;;;;;;;;;;;14.10;99.90;;;;;;5034117;28;19909;-69
2021/08/30 10:46:39;;;;;;;;;;;14.10;99.90;;;;;;5034243;28;19952;-69
2021/08/30 10:49:12;;;;;;;;;;;14.10;99.90;;;;;;5033674;28;19924;-69
2021/08/30 10:51:40;;;;;;;;;;;14.10;99.90;;;;;;5033921;28;20352;-69
2021/08/30 10:54:08;;;;;;;;;;;14.10;99.90;;;;;;5033898;28;19936;-69
2021/08/30 10:56:35;;;;;;;;;;;14.10;99.90;;;;;;5033905;28;19917;-69
2021/08/30 10:59:10;;;;;;;;;;;14.10;99.90;;;;;;5033890;28;19913;-69
2021/08/30 11:01:40;;;;;;;;;;;14.10;99.90;;;;;;5033646;28;20277;-69
2021/08/30 11:04:09;;;;;;;;;;;14.10;99.90;;;;;;5033886;28;19917;-69
2021/08/30 11:06:38;;;;;;;;;;;14.10;99.90;;;;;;5033746;28;20326;-69
2021/08/30 11:09:04;;;;;;;;;;;14.10;99.90;;;;;;5033731;28;19913;-69
2021/08/30 11:11:32;;;;;;;;;;;14.10;99.90;;;;;;5033801;28;19932;-69
2021/08/30 11:14:01;;;;;;;;;;;14.10;99.90;;;;;;5032461;28;19913;-69
2021/08/30 11:16:28;;;;;;;;;;;14.10;99.90;;;;;;5031682;28;19909;-69
2021/08/30 11:18:55;;;;;;;;;;;14.10;99.90;;;;;;5033448;28;19979;-69
2021/08/30 11:21:30;;;;;;;;;;;14.20;99.90;;;;;;5032747;28;19975;-69
2021/08/30 11:23:57;;;;;;;;;;;14.10;99.90;;;;;;5033477;28;19913;-69
2021/08/30 11:26:24;;;;;;;;;;;14.10;99.90;;;;;;5033381;28;19951;-69
2021/08/30 11:29:09;;;;;;;;;;;14.10;99.90;;;;;;5033135;28;19999;-69
2021/08/30 11:31:40;;;;;;;;;;;14.00;99.90;;;;;;5033170;28;20388;-69
2021/08/30 11:34:07;;;;;;;;;;;13.90;99.90;;;;;;5032991;28;20008;-70
2021/08/30 11:36:44;;;;;;;;;;;14.00;99.90;;;;;;5033550;28;19909;-69
2021/08/30 11:39:14;;;;;;;;;;;13.90;99.90;;;;;;5032762;28;19909;-69
2021/08/30 11:41:42;;;;;;;;;;;14.00;99.90;;;;;;5032801;28;19955;-69
2021/08/30 11:44:09;;;;;;;;;;;14.00;99.90;;;;;;5032833;28;20399;-69
2021/08/30 11:46:46;;;;;;;;;;;14.00;99.90;;;;;;5033061;28;19941;-69
2021/08/30 11:49:13;;;;;;;;;;;13.90;99.90;;;;;;5032224;28;20011;-67
2021/08/30 11:51:40;;;;;;;;;;;14.00;99.90;;;;;;5032652;28;19985;-68
2021/08/30 11:54:11;;;;;;;;;;;14.00;99.90;;;;;;5032902;28;19913;-69
2021/08/30 11:56:37;;;;;;;;;;;14.00;99.90;;;;;;5032915;28;20394;-69
2021/08/30 11:59:04;;;;;;;;;;;14.00;99.90;;;;;;5032960;28;20348;-69
2021/08/30 12:01:37;;;;;;;;;;;14.00;99.90;;;;;;5032665;28;19932;-69
2021/08/30 12:04:13;;;;;;;;;;;14.00;99.90;;;;;;5032189;28;19955;-68
2021/08/30 12:06:46;;;;;;;;;;;14.00;99.90;;;;;;5032864;28;19917;-69
2021/08/30 12:09:13;;;;;;;;;;;14.00;99.90;;;;;;5032503;28;20049;-70
2021/08/30 12:11:48;;;;;;;;;;;14.00;99.90;;;;;;5032601;28;19992;-69
2021/08/30 12:14:14;;;;;;;;;;;13.80;99.90;;;;;;5032336;28;19909;-69
2021/08/30 12:16:43;;;;;;;;;;;13.70;99.90;;;;;;5032612;28;20356;-68
2021/08/30 12:19:10;;;;;;;;;;;13.70;99.90;;;;;;5032013;28;19916;-69
2021/08/30 12:21:38;;;;;;;;;;;13.70;99.90;;;;;;5032142;28;19981;-69
2021/08/30 12:24:06;;;;;;;;;;;13.70;99.90;;;;;;5032451;28;20352;-69
2021/08/30 12:26:37;;;;;;;;;;;13.60;99.90;;;;;;5032349;28;19916;-69
2021/08/30 12:29:04;;;;;;;;;;;13.60;99.90;;;;;;5032251;28;19909;-69
2021/08/30 12:31:32;;;;;;;;;;;13.70;99.90;;;;;;5032004;28;19920;-69
2021/08/30 12:34:02;;;;;;;;;;;13.70;99.90;;;;;;5031804;28;20390;-69
2021/08/30 12:36:29;;;;;;;;;;;13.60;99.90;;;;;;5032284;28;20315;-69
2021/08/30 12:38:56;;;;;;;;;;;13.60;99.90;;;;;;5032430;28;19917;-69
2021/08/30 12:41:22;;;;;;;;;;;13.60;99.90;;;;;;5032230;28;19916;-69
2021/08/30 12:43:49;;;;;;;;;;;13.70;99.90;;;;;;5031937;28;19909;-69
2021/08/30 12:46:16;;;;;;;;;;;13.70;99.90;;;;;;5032290;28;19928;-69
2021/08/30 12:48:43;;;;;;;;;;;13.70;99.90;;;;;;5031570;28;19921;-69
2021/08/30 12:51:10;;;;;;;;;;;13.70;99.90;;;;;;5034258;28;19975;-69
2021/08/30 12:53:37;;;;;;;;;;;13.70;99.90;;;;;;5035880;28;20326;-69
2021/08/30 12:56:05;;;;;;;;;;;13.70;99.90;;;;;;5036071;28;19975;-69
2021/08/30 12:58:31;;;;;;;;;;;13.70;99.90;;;;;;5036397;28;20310;-69
2021/08/30 13:00:59;;;;;;;;;;;13.60;99.90;;;;;;5036229;28;19910;-69
2021/08/30 13:03:25;;;;;;;;;;;13.60;99.90;;;;;;5035298;28;20248;-70
2021/08/30 13:05:52;;;;;;;;;;;13.60;99.90;;;;;;5035830;28;19963;-69
2021/08/30 13:08:19;;;;;;;;;;;13.60;99.90;;;;;;5036050;28;19913;-70
2021/08/30 13:10:47;;;;;;;;;;;13.60;99.90;;;;;;5035851;28;19917;-70
2021/08/30 13:13:14;;;;;;;;;;;13.60;99.90;;;;;;5035760;28;20253;-69
2021/08/30 13:15:42;;;;;;;;;;;13.70;99.90;;;;;;5035558;28;20268;-69
2021/08/30 13:18:09;;;;;;;;;;;13.70;99.90;;;;;;5035238;28;20461;-70
2021/08/30 13:20:41;;;;;;;;;;;13.60;99.90;;;;;;5034456;28;20051;-70
2021/08/30 13:23:09;;;;;;;;;;;13.60;99.90;;;;;;5035645;28;19909;-69
2021/08/30 13:25:36;;;;;;;;;;;13.60;99.90;;;;;;5035705;28;19916;-70
2021/08/30 13:28:02;;;;;;;;;;;13.60;99.90;;;;;;5035123;28;19909;-69
2021/08/30 13:30:29;;;;;;;;;;;13.60;99.90;;;;;;5035355;28;20016;-70
2021/08/30 13:32:56;;;;;;;;;;;13.60;99.90;;;;;;5035824;28;19916;-70
2021/08/30 13:35:23;;;;;;;;;;;13.60;99.90;;;;;;5035758;28;20371;-69
2021/08/30 13:37:53;;;;;;;;;;;13.50;99.90;;;;;;5035179;28;19917;-69
2021/08/30 13:40:19;;;;;;;;;;;13.50;99.90;;;;;;5034141;28;19913;-69
2021/08/30 13:42:46;;;;;;;;;;;13.50;99.90;;;;;;5035050;28;19952;-69
2021/08/30 13:45:13;;;;;;;;;;;13.40;99.90;;;;;;5035237;28;19913;-69
2021/08/30 13:47:40;;;;;;;;;;;13.40;99.90;;;;;;5034946;28;19963;-69
2021/08/30 13:50:07;;;;;;;;;;;13.40;99.90;;;;;;5035134;28;19924;-69
2021/08/30 13:52:34;;;;;;;;;;;13.30;99.90;;;;;;5035222;28;20279;-69
2021/08/30 13:55:01;;;;;;;;;;;13.30;99.90;;;;;;5035314;28;19913;-70
2021/08/30 13:57:28;;;;;;;;;;;13.30;99.90;;;;;;5035162;28;19940;-69
2021/08/30 13:59:55;;;;;;;;;;;13.20;99.90;;;;;;5034972;28;19909;-69
2021/08/30 14:02:21;;;;;;;;;;;13.20;99.90;;;;;;5034732;28;19909;-69
2021/08/30 14:04:48;;;;;;;;;;;13.20;99.90;;;;;;5035024;28;19909;-69
2021/08/30 14:07:15;;;;;;;;;;;13.20;99.90;;;;;;5035034;28;19964;-70
2021/08/30 14:09:41;;;;;;;;;;;13.20;99.90;;;;;;5034673;28;19917;-69
2021/08/30 14:12:08;;;;;;;;;;;13.10;99.90;;;;;;5034803;28;20399;-70
2021/08/30 14:14:35;;;;;;;;;;;13.20;99.90;;;;;;5034558;28;19994;-69
2021/08/30 14:17:02;;;;;;;;;;;13.10;99.90;;;;;;5034793;28;20279;-69
2021/08/30 14:19:29;;;;;;;;;;;13.10;99.90;;;;;;5034720;28;19956;-70
2021/08/30 14:21:56;;;;;;;;;;;13.10;99.90;;;;;;5034657;28;20019;-69